Time;durP1;ratioP1;P1;durP2;ratioP2;P2;SDS_P1;SDS_P2;PMS_P1;PMS_P2;Temp;Humidity;BMP_temperature;BMP_pressure;BME280_temperature;BME280_humidity;BME280_pressure;Samples;Min_cycle;Max_cycle;Signal;HPM_P1;HPM_P2
2022/04/27 00:01:40;;;;;;;16.03;13.33;;;7.90;99.90;;;;;;4953601;28;20198;-72
2022/04/27 00:04:05;;;;;;;17.57;12.50;;;7.90;99.90;;;;;;4953997;28;20179;-74
2022/04/27 00:06:31;;;;;;;17.13;13.07;;;7.90;99.90;;;;;;4953480;28;20253;-72
2022/04/27 00:08:57;;;;;;;19.63;13.43;;;8.00;99.90;;;;;;4954594;28;20266;-72
2022/04/27 00:11:22;;;;;;;20.00;15.03;;;8.00;99.90;;;;;;4953399;28;20876;-72
2022/04/27 00:13:48;;;;;;;20.50;15.00;;;8.00;99.90;;;;;;4954229;28;20247;-70
2022/04/27 00:16:14;;;;;;;22.50;13.80;;;8.00;99.90;;;;;;4954128;28;20176;-72
2022/04/27 00:18:40;;;;;;;21.93;15.60;;;8.00;99.90;;;;;;4954166;28;20262;-72
2022/04/27 00:21:05;;;;;;;20.10;15.07;;;7.90;99.90;;;;;;4952646;28;20205;-73
2022/04/27 00:23:32;;;;;;;25.23;16.60;;;7.90;99.90;;;;;;4954106;28;20453;-72
2022/04/27 00:25:58;;;;;;;20.00;15.13;;;7.90;99.90;;;;;;4954028;28;20193;-73
2022/04/27 00:28:24;;;;;;;25.97;16.20;;;7.90;99.90;;;;;;4953968;28;20932;-72
2022/04/27 00:30:50;;;;;;;22.80;16.93;;;7.90;99.90;;;;;;4953292;28;20238;-73
2022/04/27 00:33:15;;;;;;;25.13;17.40;;;7.90;99.90;;;;;;4953204;28;20218;-72
2022/04/27 00:35:41;;;;;;;25.17;16.17;;;7.90;99.90;;;;;;4954062;28;20171;-72
2022/04/27 00:38:06;;;;;;;26.57;17.20;;;7.90;99.90;;;;;;4953675;28;20641;-73
2022/04/27 00:40:32;;;;;;;27.40;17.53;;;7.80;99.90;;;;;;4953208;28;20178;-73
2022/04/27 00:42:58;;;;;;;26.07;18.00;;;7.80;99.90;;;;;;4952992;28;20212;-74
2022/04/27 00:45:24;;;;;;;27.90;17.50;;;7.90;99.90;;;;;;4953649;28;20666;-73
2022/04/27 00:47:49;;;;;;;26.23;18.53;;;7.90;99.90;;;;;;4953166;28;20418;-71
2022/04/27 00:50:15;;;;;;;28.17;18.43;;;7.90;99.90;;;;;;4955681;28;20273;-73
2022/04/27 00:52:41;;;;;;;25.10;17.47;;;8.00;99.90;;;;;;4957094;28;20235;-74
2022/04/27 00:55:08;;;;;;;27.73;17.90;;;7.90;99.90;;;;;;4957237;28;20193;-73
2022/04/27 00:57:33;;;;;;;27.80;16.93;;;7.90;99.90;;;;;;4956298;28;20461;-73
2022/04/27 00:59:59;;;;;;;31.50;19.40;;;7.90;99.90;;;;;;4956715;28;20481;-74
2022/04/27 02:33:02;;;;;;;38.17;23.07;;;8.30;99.90;;;;;;4942532;23;20498;-70
2022/04/27 02:35:28;;;;;;;40.70;23.47;;;8.30;99.90;;;;;;4947790;29;20438;-71
2022/04/27 02:37:54;;;;;;;43.43;24.73;;;8.30;99.90;;;;;;4929322;29;20414;-71
2022/04/27 02:40:19;;;;;;;38.27;24.00;;;8.30;99.90;;;;;;4937964;29;20186;-71
2022/04/27 02:42:45;;;;;;;38.73;23.83;;;8.30;99.90;;;;;;4937493;29;20214;-71
2022/04/27 02:45:10;;;;;;;34.67;21.43;;;8.30;99.90;;;;;;4937754;29;20275;-71
2022/04/27 02:47:36;;;;;;;35.40;21.63;;;8.30;99.90;;;;;;4937784;29;20185;-71
2022/04/27 02:52:49;;;;;;;38.93;21.87;;;8.30;99.90;;;;;;4931413;29;20259;-72
2022/04/27 02:55:15;;;;;;;30.70;21.00;;;8.30;99.90;;;;;;4937330;29;20445;-71
2022/04/27 02:57:40;;;;;;;39.03;21.40;;;8.30;99.90;;;;;;4937603;29;20416;-72
2022/04/27 03:00:07;;;;;;;33.70;21.30;;;8.30;99.90;;;;;;4937381;29;20419;-71
2022/04/27 03:02:33;;;;;;;31.97;20.37;;;8.30;99.90;;;;;;4937135;29;20263;-71
2022/04/27 03:05:00;;;;;;;26.63;20.03;;;8.30;99.90;;;;;;4937455;29;20847;-71
2022/04/27 03:07:26;;;;;;;29.03;19.40;;;8.30;99.90;;;;;;4937535;29;20191;-72
2022/04/27 03:09:51;;;;;;;33.70;21.27;;;8.20;99.90;;;;;;4937295;29;20920;-71
2022/04/27 03:12:17;;;;;;;36.83;20.10;;;8.20;99.90;;;;;;4936609;29;20459;-71
2022/04/27 03:14:42;;;;;;;28.40;20.27;;;8.20;99.90;;;;;;4937520;29;20208;-71
2022/04/27 03:17:08;;;;;;;32.40;20.63;;;8.20;99.90;;;;;;4937102;29;20187;-71
2022/04/27 03:19:33;;;;;;;29.93;20.03;;;8.20;99.90;;;;;;4937312;29;20193;-71
2022/04/27 03:21:59;;;;;;;31.83;20.97;;;8.20;99.90;;;;;;4936917;29;20199;-71
2022/04/27 03:24:25;;;;;;;33.33;19.47;;;8.30;99.90;;;;;;4936931;29;20177;-71
2022/04/27 03:26:50;;;;;;;29.73;20.00;;;8.30;99.90;;;;;;4937019;29;20180;-71
2022/04/27 03:29:16;;;;;;;26.20;18.37;;;8.30;99.90;;;;;;4937112;29;20176;-71
2022/04/27 03:31:42;;;;;;;30.03;18.80;;;8.30;99.90;;;;;;4936477;29;20223;-71
2022/04/27 03:34:08;;;;;;;25.50;17.97;;;8.30;99.90;;;;;;4936520;29;20843;-71
2022/04/27 03:36:33;;;;;;;26.80;17.97;;;8.30;99.90;;;;;;4936853;29;20431;-70
2022/04/27 03:38:59;;;;;;;29.93;18.53;;;8.30;99.90;;;;;;4936872;29;20182;-69
2022/04/27 03:41:27;;;;;;;25.27;16.50;;;8.30;99.90;;;;;;4936280;29;20258;-71
2022/04/27 03:43:53;;;;;;;24.40;17.20;;;8.30;99.90;;;;;;4936878;29;20666;-71
2022/04/27 03:46:19;;;;;;;24.53;16.20;;;8.30;99.90;;;;;;4936528;29;20468;-71
2022/04/27 03:48:46;;;;;;;21.53;16.40;;;8.30;99.90;;;;;;4936749;29;20462;-71
2022/04/27 03:51:12;;;;;;;22.47;15.70;;;8.30;99.90;;;;;;4936157;29;20218;-71
2022/04/27 03:53:38;;;;;;;23.10;15.83;;;8.30;99.90;;;;;;4936074;29;20831;-71
2022/04/27 03:56:04;;;;;;;23.37;15.43;;;8.30;99.90;;;;;;4936298;29;20421;-72
2022/04/27 03:58:29;;;;;;;22.70;16.60;;;8.30;99.90;;;;;;4936372;29;20176;-72
2022/04/27 04:00:55;;;;;;;25.07;16.70;;;8.30;99.90;;;;;;4936185;29;20440;-70
2022/04/27 04:03:20;;;;;;;22.83;15.10;;;8.30;99.90;;;;;;4936465;29;20541;-71
2022/04/27 04:05:46;;;;;;;23.30;15.90;;;8.40;99.90;;;;;;4936509;29;20188;-70
2022/04/27 04:08:11;;;;;;;22.13;16.30;;;8.40;99.90;;;;;;4936063;29;20179;-70
2022/04/27 04:10:37;;;;;;;20.63;15.00;;;8.40;99.90;;;;;;4936148;29;20198;-70
2022/04/27 04:13:02;;;;;;;31.27;16.80;;;8.40;99.90;;;;;;4936066;29;20703;-70
2022/04/27 04:15:28;;;;;;;23.73;16.10;;;8.40;99.90;;;;;;4936195;29;20228;-70
2022/04/27 04:17:54;;;;;;;21.50;15.30;;;8.40;99.90;;;;;;4936059;29;20187;-72
2022/04/27 04:20:20;;;;;;;24.20;16.20;;;8.40;99.90;;;;;;4935874;29;20725;-72
2022/04/27 04:22:47;;;;;;;23.87;17.03;;;8.40;99.90;;;;;;4935723;29;20279;-72
2022/04/27 04:30:43;;;;;;;24.80;17.10;;;8.40;99.90;;;;;;4935951;29;20956;-71
2022/04/27 04:33:09;;;;;;;24.80;16.30;;;8.50;99.90;;;;;;4935416;29;20460;-71
2022/04/27 04:35:36;;;;;;;21.93;15.33;;;8.50;99.90;;;;;;4936017;29;20177;-72
2022/04/27 04:38:06;;;;;;;31.90;16.80;;;8.50;99.90;;;;;;4936145;29;20905;-72
2022/04/27 04:40:33;;;;;;;21.53;15.93;;;8.60;99.90;;;;;;4938394;29;20817;-71
2022/04/27 04:42:59;;;;;;;22.80;16.20;;;8.60;99.90;;;;;;4936809;29;20444;-72
2022/04/27 04:45:24;;;;;;;23.50;15.77;;;8.60;99.90;;;;;;4935688;29;20419;-72
2022/04/27 04:47:50;;;;;;;22.83;15.50;;;8.60;99.90;;;;;;4935630;29;20503;-72
2022/04/27 04:50:16;;;;;;;21.10;16.50;;;8.60;99.90;;;;;;4935420;29;20178;-72
2022/04/27 04:52:42;;;;;;;23.13;15.40;;;8.60;99.90;;;;;;4934903;29;20592;-72
2022/04/27 04:55:08;;;;;;;24.30;17.13;;;8.70;99.90;;;;;;4934050;29;20633;-72
2022/04/27 04:57:34;;;;;;;24.70;17.30;;;8.70;99.90;;;;;;4935396;29;20175;-71
2022/04/27 05:00:00;;;;;;;23.03;16.70;;;8.60;99.90;;;;;;4935333;29;20453;-72
2022/04/27 05:02:25;;;;;;;26.23;17.53;;;8.60;99.90;;;;;;4934880;29;20505;-72
2022/04/27 05:04:51;;;;;;;26.03;17.20;;;8.70;99.90;;;;;;4935270;29;20554;-72
2022/04/27 05:07:18;;;;;;;24.23;16.60;;;8.70;99.90;;;;;;4935131;29;20184;-72
2022/04/27 05:09:44;;;;;;;24.60;16.27;;;8.70;99.90;;;;;;4935173;29;20664;-72
2022/04/27 05:12:10;;;;;;;26.53;16.20;;;8.70;99.90;;;;;;4934623;29;20435;-72
2022/04/27 05:14:36;;;;;;;24.50;17.23;;;8.70;99.90;;;;;;4935204;29;20439;-72
2022/04/27 05:17:01;;;;;;;24.77;15.53;;;8.70;99.90;;;;;;4935040;29;20325;-72
2022/04/27 05:19:27;;;;;;;26.10;16.93;;;8.70;99.90;;;;;;4922915;29;20192;-72
2022/04/27 05:21:52;;;;;;;26.57;16.47;;;8.70;99.90;;;;;;4918325;29;20211;-71
2022/04/27 05:24:18;;;;;;;24.90;15.67;;;8.80;99.90;;;;;;4924022;29;20317;-71
2022/04/27 05:26:44;;;;;;;24.50;17.07;;;8.70;99.90;;;;;;4921388;29;20178;-72
2022/04/27 05:31:54;;;;;;;25.87;16.90;;;8.80;99.90;;;;;;4934673;29;20477;-72
2022/04/27 05:34:23;;;;;;;24.47;16.03;;;8.80;99.90;;;;;;4933941;29;20942;-72
2022/04/27 05:36:48;;;;;;;24.13;17.30;;;8.80;99.90;;;;;;4934722;29;20188;-71
2022/04/27 05:39:14;;;;;;;25.70;16.97;;;8.80;99.90;;;;;;4934531;29;20425;-72
2022/04/27 05:41:41;;;;;;;24.27;16.43;;;8.90;99.90;;;;;;4935354;29;20202;-72
2022/04/27 05:44:09;;;;;;;25.70;15.87;;;8.90;99.90;;;;;;4934708;29;20179;-72
2022/04/27 05:46:36;;;;;;;29.07;17.23;;;8.90;99.90;;;;;;4934728;29;20794;-72
2022/04/27 05:49:01;;;;;;;22.80;15.73;;;8.90;99.90;;;;;;4934561;29;20426;-72
2022/04/27 05:51:27;;;;;;;22.20;16.10;;;8.90;99.90;;;;;;4934082;29;20834;-72
2022/04/27 05:53:53;;;;;;;26.40;16.90;;;8.90;99.90;;;;;;4934933;29;20682;-71
2022/04/27 05:56:19;;;;;;;27.97;16.90;;;9.00;99.90;;;;;;4934701;29;20215;-72
2022/04/27 05:58:45;;;;;;;24.50;16.70;;;9.00;99.90;;;;;;4934681;29;20260;-72
2022/04/27 06:01:11;;;;;;;26.07;16.63;;;9.00;99.90;;;;;;4934100;29;20463;-72
2022/04/27 06:03:38;;;;;;;21.10;15.50;;;9.10;99.90;;;;;;4933608;29;20187;-71
2022/04/27 06:06:04;;;;;;;23.57;16.93;;;9.10;99.90;;;;;;4934134;29;20458;-72
2022/04/27 06:08:29;;;;;;;21.37;16.10;;;9.10;99.90;;;;;;4934057;29;20451;-72
2022/04/27 06:10:55;;;;;;;22.60;16.53;;;9.10;99.90;;;;;;4934026;29;20199;-72
2022/04/27 06:13:20;;;;;;;28.13;15.87;;;9.10;99.90;;;;;;4933954;29;20214;-72
2022/04/27 06:15:46;;;;;;;21.00;15.97;;;9.20;99.90;;;;;;4934457;29;20261;-71
2022/04/27 06:18:12;;;;;;;19.87;14.57;;;9.20;99.90;;;;;;4917793;29;20733;-72
2022/04/27 06:20:38;;;;;;;17.20;14.77;;;9.10;99.90;;;;;;4934486;29;20426;-70
2022/04/27 06:23:03;;;;;;;25.43;16.43;;;9.10;99.90;;;;;;4917890;29;20179;-71
2022/04/27 06:25:30;;;;;;;19.00;14.53;;;9.10;99.90;;;;;;4933722;29;20195;-72
2022/04/27 06:27:56;;;;;;;19.57;15.07;;;9.20;99.90;;;;;;4933620;29;20533;-72
2022/04/27 06:30:25;;;;;;;20.40;15.10;;;9.10;99.90;;;;;;4935898;29;20417;-72
2022/04/27 06:32:51;;;;;;;21.43;15.50;;;9.20;99.90;;;;;;4934879;29;20483;-72
2022/04/27 06:35:17;;;;;;;18.80;14.50;;;9.20;99.90;;;;;;4934580;29;20419;-70
2022/04/27 06:37:46;;;;;;;19.27;14.10;;;9.20;99.90;;;;;;4934427;29;20455;-72
2022/04/27 06:40:13;;;;;;;21.93;15.67;;;9.20;99.90;;;;;;4935033;29;20858;-73
2022/04/27 06:42:42;;;;;;;20.43;14.53;;;9.30;99.90;;;;;;4932506;29;20435;-72
2022/04/27 06:45:09;;;;;;;21.90;14.73;;;9.40;99.90;;;;;;4933834;29;20499;-72
2022/04/27 06:47:34;;;;;;;22.10;14.43;;;9.40;99.90;;;;;;4932862;29;20432;-72
2022/04/27 06:50:00;;;;;;;19.93;14.77;;;9.40;99.90;;;;;;4933934;29;20416;-72
2022/04/27 06:52:25;;;;;;;19.07;15.13;;;9.50;99.90;;;;;;4933464;29;20239;-72
2022/04/27 06:54:51;;;;;;;21.67;16.10;;;9.50;99.90;;;;;;4933982;29;20182;-72
2022/04/27 06:57:16;;;;;;;16.97;14.20;;;9.60;99.90;;;;;;4933767;29;20183;-72
2022/04/27 06:59:42;;;;;;;15.37;12.80;;;9.80;99.90;;;;;;4935072;29;20652;-73
2022/04/27 07:02:11;;;;;;;16.40;13.10;;;10.00;99.90;;;;;;4934892;29;20268;-72
2022/04/27 07:04:37;;;;;;;20.33;14.90;;;10.00;99.90;;;;;;4934799;29;20184;-72
2022/04/27 07:07:03;;;;;;;17.43;13.13;;;9.90;99.90;;;;;;4933906;29;20892;-72
2022/04/27 07:09:30;;;;;;;17.53;13.10;;;10.00;99.90;;;;;;4933787;29;20539;-72
2022/04/27 07:11:55;;;;;;;16.97;12.87;;;10.00;99.90;;;;;;4933513;29;20440;-72
2022/04/27 07:14:21;;;;;;;18.37;12.30;;;10.10;99.90;;;;;;4935112;29;20808;-71
2022/04/27 07:16:47;;;;;;;13.40;11.40;;;10.20;99.90;;;;;;4937512;29;20256;-72
2022/04/27 07:19:13;;;;;;;12.83;10.33;;;10.20;99.90;;;;;;4937103;29;20415;-71
2022/04/27 07:21:39;;;;;;;14.70;11.10;;;10.30;99.90;;;;;;4937310;29;20228;-72
2022/04/27 07:24:05;;;;;;;16.40;11.20;;;10.30;99.90;;;;;;4938282;29;20182;-72
2022/04/27 07:26:32;;;;;;;16.37;11.77;;;10.40;99.90;;;;;;4937965;29;20427;-72
2022/04/27 07:28:57;;;;;;;14.17;11.07;;;10.40;99.90;;;;;;4937512;29;20419;-71
2022/04/27 07:31:23;;;;;;;12.17;10.57;;;10.60;99.90;;;;;;4937206;29;20531;-71
2022/04/27 07:33:49;;;;;;;17.00;11.13;;;10.70;99.90;;;;;;4938100;29;20228;-72
2022/04/27 07:36:15;;;;;;;12.63;10.60;;;10.90;99.90;;;;;;4937510;29;20814;-72
2022/04/27 07:38:40;;;;;;;14.20;11.03;;;11.00;99.90;;;;;;4937344;29;20431;-72
2022/04/27 07:41:07;;;;;;;13.40;11.63;;;11.20;99.90;;;;;;4936576;29;20201;-72
2022/04/27 07:43:33;;;;;;;13.40;10.50;;;11.60;99.90;;;;;;4936882;29;20276;-72
2022/04/27 07:45:58;;;;;;;11.47;9.77;;;12.20;99.90;;;;;;4936866;29;20519;-72
2022/04/27 07:48:24;;;;;;;13.23;10.63;;;12.50;99.90;;;;;;4936745;29;20229;-72
2022/04/27 07:50:50;;;;;;;12.10;10.23;;;12.60;99.90;;;;;;4936378;29;20184;-69
2022/04/27 07:53:16;;;;;;;13.93;10.87;;;12.50;99.90;;;;;;4936550;29;20209;-70
2022/04/27 07:55:41;;;;;;;11.67;10.43;;;12.40;99.90;;;;;;4936693;29;20174;-70
2022/04/27 07:58:06;;;;;;;9.73;8.73;;;12.40;99.90;;;;;;4936473;29;20654;-69
2022/04/27 08:00:32;;;;;;;8.43;7.63;;;12.60;99.90;;;;;;4936455;29;20170;-69
2022/04/27 08:02:58;;;;;;;11.70;8.67;;;12.70;99.90;;;;;;4936357;29;20329;-69
2022/04/27 08:05:24;;;;;;;7.93;7.13;;;13.30;99.90;;;;;;4936262;29;20177;-69
2022/04/27 08:07:49;;;;;;;8.63;7.60;;;13.70;99.90;;;;;;4936448;29;20177;-70
2022/04/27 08:10:20;;;;;;;7.50;6.80;;;14.30;99.90;;;;;;4936265;29;20260;-69
2022/04/27 08:12:48;;;;;;;7.93;7.13;;;14.90;99.90;;;;;;4936039;29;20216;-69
2022/04/27 08:15:15;;;;;;;8.20;7.33;;;15.30;99.90;;;;;;4936204;29;20477;-68
2022/04/27 08:18:10;;;;;;;9.27;6.90;;;15.10;99.90;;;;;;4936298;29;20413;-69
2022/04/27 08:23:29;;;;;;;8.03;6.77;;;14.30;99.90;;;;;;4936008;29;20789;-70
2022/04/27 08:25:56;;;;;;;7.43;6.70;;;14.00;99.90;;;;;;4935294;29;20508;-69
2022/04/27 08:28:22;;;;;;;8.40;7.60;;;13.90;99.90;;;;;;4935811;29;20413;-69
2022/04/27 08:30:48;;;;;;;9.53;6.90;;;13.90;99.90;;;;;;4935688;29;20432;-69
2022/04/27 08:33:15;;;;;;;8.40;7.07;;;13.80;99.90;;;;;;4935500;29;20218;-69
2022/04/27 08:35:41;;;;;;;8.33;7.37;;;13.60;99.90;;;;;;4935947;29;20421;-68
2022/04/27 08:38:09;;;;;;;7.13;6.43;;;13.40;99.90;;;;;;4936013;29;20430;-69
2022/04/27 08:40:36;;;;;;;8.10;7.27;;;13.40;99.90;;;;;;4935501;29;20421;-69
2022/04/27 08:43:02;;;;;;;8.83;7.10;;;13.50;99.90;;;;;;4935627;29;20529;-71
2022/04/27 08:45:28;;;;;;;8.10;6.80;;;14.10;99.90;;;;;;4935638;29;20520;-71
2022/04/27 08:47:55;;;;;;;9.23;6.63;;;14.70;99.90;;;;;;4935715;29;20185;-71
2022/04/27 08:50:22;;;;;;;7.53;6.83;;;15.20;99.90;;;;;;4935371;29;20431;-70
2022/04/27 08:52:48;;;;;;;8.53;7.73;;;15.50;99.90;;;;;;4935435;29;20472;-69
2022/04/27 08:55:15;;;;;;;10.30;7.80;;;15.50;99.90;;;;;;4935427;29;20417;-71
2022/04/27 08:57:43;;;;;;;9.53;6.67;;;15.60;99.90;;;;;;4935498;29;20421;-71
2022/04/27 09:00:12;;;;;;;7.97;7.17;;;15.50;99.90;;;;;;4935162;29;20441;-71
2022/04/27 09:02:37;;;;;;;8.33;7.43;;;15.10;99.90;;;;;;4934989;29;20452;-71
2022/04/27 09:05:18;;;;;;;9.30;7.10;;;14.90;99.90;;;;;;4935400;29;20868;-71
2022/04/27 09:07:46;;;;;;;9.30;8.40;;;14.70;99.90;;;;;;4935343;29;20713;-70
2022/04/27 09:10:16;;;;;;;8.13;7.33;;;14.50;99.90;;;;;;4935067;29;20418;-70
2022/04/27 09:12:48;;;;;;;7.40;6.70;;;14.50;99.90;;;;;;4934891;29;20473;-71
2022/04/27 09:15:16;;;;;;;9.37;6.80;;;14.40;99.90;;;;;;4935173;29;20741;-71
2022/04/27 09:23:23;;;;;;;6.33;5.73;;;14.20;99.90;;;;;;4935683;29;20499;-71
2022/04/27 09:25:55;;;;;;;6.67;5.83;;;14.10;99.90;;;;;;4935404;29;20471;-71
2022/04/27 09:28:25;;;;;;;7.00;5.70;;;14.10;99.90;;;;;;4935080;29;20418;-71
2022/04/27 09:30:52;;;;;;;7.23;6.40;;;14.20;99.90;;;;;;4934937;29;20444;-71
2022/04/27 09:33:35;;;;;;;7.47;6.63;;;14.30;99.90;;;;;;4934781;29;20468;-71
2022/04/27 09:36:02;;;;;;;8.33;6.93;;;14.50;99.90;;;;;;4935201;29;20417;-71
2022/04/27 09:38:39;;;;;;;8.97;7.20;;;14.50;99.90;;;;;;4934675;29;20496;-71
2022/04/27 09:41:05;;;;;;;9.37;7.13;;;14.40;99.90;;;;;;4934430;29;20954;-71
2022/04/27 09:43:47;;;;;;;11.47;7.90;;;14.30;99.90;;;;;;4934956;29;20424;-71
2022/04/27 09:46:24;;;;;;;9.90;6.43;;;14.00;99.90;;;;;;4934868;29;20506;-71
2022/04/27 09:49:02;;;;;;;8.00;6.13;;;13.90;99.90;;;;;;4934652;29;20409;-71
2022/04/27 09:51:28;;;;;;;6.30;5.70;;;13.90;99.90;;;;;;4934275;29;20520;-70
2022/04/27 09:53:58;;;;;;;7.57;6.50;;;13.90;99.90;;;;;;4934822;29;20615;-71
2022/04/27 09:56:28;;;;;;;5.30;4.80;;;14.00;99.90;;;;;;4934497;28;21013;-70
2022/04/27 09:58:57;;;;;;;6.80;5.10;;;14.10;99.90;;;;;;4934734;29;20413;-71
2022/04/27 10:01:24;;;;;;;9.07;6.10;;;14.10;99.90;;;;;;4934048;29;20576;-71
2022/04/27 10:03:51;;;;;;;6.07;5.20;;;14.10;99.90;;;;;;4934537;29;20424;-71
2022/04/27 10:06:17;;;;;;;7.20;5.70;;;13.90;99.90;;;;;;4933191;29;20480;-71
2022/04/27 10:08:43;;;;;;;5.20;4.70;;;13.80;99.90;;;;;;4934617;29;20417;-70
2022/04/27 10:11:11;;;;;;;6.47;5.27;;;14.00;99.90;;;;;;4932810;29;20212;-71
2022/04/27 10:13:37;;;;;;;7.37;5.80;;;14.30;99.90;;;;;;4933158;29;21049;-71
2022/04/27 10:16:03;;;;;;;5.20;4.70;;;14.20;99.90;;;;;;4934418;29;20509;-71
2022/04/27 10:18:30;;;;;;;7.20;5.13;;;14.50;99.90;;;;;;4934430;29;20531;-71
2022/04/27 10:20:56;;;;;;;5.37;4.70;;;14.50;99.90;;;;;;4934120;29;20432;-71
2022/04/27 10:23:28;;;;;;;5.80;5.20;;;14.40;99.90;;;;;;4933962;29;20809;-70
2022/04/27 10:26:12;;;;;;;5.60;5.10;;;14.30;99.90;;;;;;4934385;29;20181;-70
2022/04/27 10:28:49;;;;;;;7.00;5.90;;;14.20;99.90;;;;;;4934241;29;20409;-70
2022/04/27 10:31:46;;;;;;;7.17;5.83;;;14.40;99.90;;;;;;4933670;29;20538;-69
2022/04/27 10:34:19;;;;;;;5.20;4.00;;;14.50;99.90;;;;;;4933580;29;20583;-71
2022/04/27 10:36:47;;;;;;;6.13;5.50;;;14.60;99.90;;;;;;4937084;29;20402;-71
2022/04/27 10:39:13;;;;;;;10.00;5.80;;;14.70;99.90;;;;;;4935121;29;20777;-71
2022/04/27 10:42:04;;;;;;;5.10;4.70;;;14.70;99.90;;;;;;4934010;29;20437;-70
2022/04/27 10:44:48;;;;;;;4.80;4.30;;;14.60;99.90;;;;;;4924056;29;20280;-70
2022/04/27 10:47:21;;;;;;;5.43;4.93;;;14.60;99.90;;;;;;4933838;29;20420;-70
2022/04/27 10:49:48;;;;;;;5.03;4.60;;;14.50;99.90;;;;;;4935891;29;20457;-70
2022/04/27 10:52:14;;;;;;;5.10;4.70;;;14.50;99.90;;;;;;4937349;29;20437;-71
2022/04/27 10:54:41;;;;;;;4.93;4.53;;;14.30;99.90;;;;;;4937667;29;20413;-71
2022/04/27 10:57:15;;;;;;;6.97;5.20;;;14.10;99.90;;;;;;4937486;29;20474;-70
2022/04/27 10:59:56;;;;;;;5.20;4.70;;;14.20;99.90;;;;;;4937493;29;20607;-70
2022/04/27 11:02:44;;;;;;;5.53;4.67;;;14.20;99.90;;;;;;4937464;29;20444;-70
2022/04/27 11:05:10;;;;;;;5.77;4.53;;;14.20;99.90;;;;;;4937325;29;20420;-70
2022/04/27 11:07:48;;;;;;;4.70;4.30;;;14.20;99.90;;;;;;4937445;29;20772;-71
2022/04/27 11:10:18;;;;;;;4.90;4.50;;;14.20;99.90;;;;;;4937211;29;20309;-71
2022/04/27 11:12:46;;;;;;;4.87;4.47;;;14.30;99.90;;;;;;4935765;29;20465;-71
2022/04/27 11:15:15;;;;;;;5.50;4.90;;;14.40;99.90;;;;;;4937115;29;20922;-71
2022/04/27 11:17:40;;;;;;;4.93;4.50;;;14.60;99.90;;;;;;4937411;29;20412;-71
2022/04/27 11:20:22;;;;;;;4.80;4.40;;;14.60;99.90;;;;;;4937056;29;20504;-71
2022/04/27 11:22:47;;;;;;;4.77;4.43;;;15.10;99.90;;;;;;4937114;29;20201;-71
2022/04/27 11:25:21;;;;;;;5.63;5.00;;;15.30;99.90;;;;;;4936919;29;20838;-70
2022/04/27 11:27:48;;;;;;;5.60;5.10;;;15.30;99.90;;;;;;4937444;29;20686;-71
2022/04/27 11:30:14;;;;;;;5.03;4.60;;;15.70;99.90;;;;;;4936780;29;20918;-70
2022/04/27 11:32:43;;;;;;;5.20;4.70;;;16.30;99.90;;;;;;4936476;29;20473;-71
2022/04/27 11:35:09;;;;;;;4.23;3.83;;;17.00;99.90;;;;;;4936933;29;20425;-71
2022/04/27 11:37:37;;;;;;;4.73;4.33;;;17.30;99.90;;;;;;4937353;29;20428;-71
2022/04/27 11:40:19;;;;;;;4.77;4.37;;;17.40;99.90;;;;;;4936969;29;20211;-71
2022/04/27 11:42:46;;;;;;;4.37;4.03;;;17.30;99.90;;;;;;4936770;29;20532;-71
2022/04/27 11:45:18;;;;;;;5.20;4.80;;;17.20;99.90;;;;;;4936678;29;20421;-71
2022/04/27 11:47:43;;;;;;;4.80;4.40;;;16.70;99.90;;;;;;4936532;29;20937;-71
2022/04/27 11:50:09;;;;;;;11.13;4.47;;;16.40;99.90;;;;;;4936694;29;20424;-71
2022/04/27 11:52:38;;;;;;;5.73;5.33;;;16.70;99.90;;;;;;4936392;29;20686;-71
2022/04/27 11:55:12;;;;;;;5.30;4.80;;;16.80;99.90;;;;;;4936712;29;20205;-71
2022/04/27 11:57:39;;;;;;;4.70;4.30;;;17.00;99.90;;;;;;4936620;29;20778;-71
2022/04/27 12:00:06;;;;;;;5.43;4.93;;;16.90;99.90;;;;;;4936558;29;20471;-71
2022/04/27 12:02:33;;;;;;;4.80;4.40;;;16.70;99.90;;;;;;4935944;29;20452;-71
2022/04/27 12:04:59;;;;;;;5.57;5.17;;;16.50;99.90;;;;;;4936441;29;20452;-70
2022/04/27 12:07:25;;;;;;;4.30;4.00;;;16.70;99.90;;;;;;4936155;29;21173;-71
2022/04/27 12:09:59;;;;;;;5.10;4.70;;;17.00;99.90;;;;;;4936470;29;20429;-71
2022/04/27 12:12:27;;;;;;;5.23;4.83;;;17.30;99.90;;;;;;4935775;29;20440;-71
2022/04/27 12:14:53;;;;;;;4.80;4.40;;;17.30;99.90;;;;;;4936264;29;20417;-71
2022/04/27 12:17:42;;;;;;;4.10;3.80;;;17.30;99.90;;;;;;4935945;29;20432;-70
2022/04/27 12:20:09;;;;;;;5.80;4.20;;;17.20;99.90;;;;;;4936122;29;20412;-71
2022/04/27 12:22:35;;;;;;;4.77;4.43;;;16.90;99.90;;;;;;4935765;29;20861;-71
2022/04/27 12:25:02;;;;;;;5.67;4.43;;;16.60;99.90;;;;;;4935961;29;20424;-70
2022/04/27 12:27:28;;;;;;;5.50;4.57;;;16.50;99.90;;;;;;4935760;29;20802;-70
2022/04/27 12:30:06;;;;;;;5.50;5.00;;;16.60;99.90;;;;;;4935770;29;20500;-71
2022/04/27 12:32:32;;;;;;;5.33;4.83;;;16.70;99.90;;;;;;4935398;29;20205;-71
2022/04/27 12:37:49;;;;;;;5.50;5.07;;;16.30;99.90;;;;;;4936249;29;20724;-71
2022/04/27 12:40:16;;;;;;;5.00;4.60;;;16.10;99.90;;;;;;4935488;29;20417;-71
2022/04/27 12:43:01;;;;;;;7.40;4.17;;;15.90;99.90;;;;;;4935467;29;20240;-71
2022/04/27 12:45:28;;;;;;;4.13;3.80;;;15.80;99.90;;;;;;4935724;29;20481;-71
2022/04/27 12:47:53;;;;;;;4.27;3.97;;;15.80;99.90;;;;;;4935685;29;20845;-71
2022/04/27 12:50:19;;;;;;;3.87;3.67;;;15.70;99.90;;;;;;4935223;29;20421;-69
2022/04/27 12:52:46;;;;;;;5.80;3.50;;;15.70;99.90;;;;;;4936215;29;20571;-71
2022/04/27 12:55:13;;;;;;;4.17;3.87;;;15.50;99.90;;;;;;4939167;29;20172;-70
2022/04/27 12:57:55;;;;;;;6.23;5.30;;;15.50;99.90;;;;;;4937349;29;20503;-69
2022/04/27 13:00:42;;;;;;;4.43;4.10;;;15.40;99.90;;;;;;4935481;29;20409;-70
2022/04/27 13:03:08;;;;;;;6.77;4.70;;;15.30;99.90;;;;;;4935175;29;20941;-70
2022/04/27 13:05:40;;;;;;;7.10;4.60;;;15.10;99.90;;;;;;4935308;29;20499;-70
2022/04/27 13:08:07;;;;;;;4.93;4.53;;;15.10;99.90;;;;;;4920541;29;21029;-69
2022/04/27 13:13:18;;;;;;;4.77;4.40;;;15.00;99.90;;;;;;4914436;29;20516;-69
2022/04/27 13:15:49;;;;;;;5.80;4.90;;;14.80;99.90;;;;;;4914984;29;20473;-70
2022/04/27 13:18:15;;;;;;;5.20;4.70;;;14.70;99.90;;;;;;4915124;29;20486;-69
2022/04/27 13:20:41;;;;;;;11.57;6.70;;;14.70;99.90;;;;;;4914633;29;20457;-69
2022/04/27 13:23:08;;;;;;;10.37;4.50;;;14.70;99.90;;;;;;4914951;29;20477;-70
2022/04/27 13:25:34;;;;;;;5.30;4.90;;;14.80;99.90;;;;;;4915276;29;20210;-70
2022/04/27 13:28:00;;;;;;;4.80;4.37;;;14.90;99.90;;;;;;4914937;29;20468;-70
2022/04/27 13:30:25;;;;;;;4.73;4.33;;;15.00;99.90;;;;;;4914954;29;20202;-68
2022/04/27 13:32:51;;;;;;;5.23;4.57;;;15.10;99.90;;;;;;4915987;29;20714;-71
2022/04/27 13:35:17;;;;;;;5.57;4.30;;;15.20;99.90;;;;;;4950687;29;20209;-71
2022/04/27 13:37:42;;;;;;;5.30;4.90;;;15.30;99.90;;;;;;4952981;28;20748;-70
2022/04/27 13:40:08;;;;;;;4.93;4.53;;;15.40;99.90;;;;;;4953164;29;20189;-70
2022/04/27 13:42:34;;;;;;;5.50;5.07;;;15.50;99.90;;;;;;4952659;28;20463;-71
2022/04/27 13:44:59;;;;;;;5.77;5.27;;;15.60;99.90;;;;;;4953229;28;20211;-71
2022/04/27 13:47:26;;;;;;;6.60;5.00;;;15.60;99.90;;;;;;4952791;28;20217;-70
2022/04/27 13:49:52;;;;;;;5.80;5.30;;;15.70;99.90;;;;;;4953184;28;20211;-70
2022/04/27 13:52:18;;;;;;;4.90;4.50;;;15.80;99.90;;;;;;4940638;28;20480;-71
2022/04/27 13:54:43;;;;;;;6.47;5.87;;;15.90;99.90;;;;;;4914980;29;20442;-71
2022/04/27 13:57:09;;;;;;;5.23;4.73;;;16.00;99.90;;;;;;4914353;29;20466;-71
2022/04/27 13:59:35;;;;;;;5.43;5.03;;;16.10;99.90;;;;;;4914810;29;20209;-71
2022/04/27 14:02:02;;;;;;;6.10;5.00;;;16.30;99.90;;;;;;4914346;29;20278;-70
2022/04/27 14:04:29;;;;;;;7.63;6.87;;;16.30;99.90;;;;;;4914603;29;20236;-71
2022/04/27 14:06:54;;;;;;;6.30;5.70;;;16.40;99.90;;;;;;4914569;29;20477;-71
2022/04/27 14:09:20;;;;;;;5.67;5.17;;;16.40;99.90;;;;;;4914412;29;21009;-71
2022/04/27 14:14:29;;;;;;;6.77;5.43;;;16.10;99.90;;;;;;4914520;29;20228;-71
2022/04/27 14:19:39;;;;;;;6.17;5.23;;;16.30;99.90;;;;;;4914861;29;20791;-71
2022/04/27 14:22:05;;;;;;;5.33;4.80;;;16.10;99.90;;;;;;4913954;29;20544;-70
2022/04/27 14:24:31;;;;;;;5.87;5.37;;;16.10;99.90;;;;;;4916080;29;20683;-71
2022/04/27 14:26:57;;;;;;;7.60;5.10;;;16.10;99.90;;;;;;4918776;29;20442;-71
2022/04/27 14:29:22;;;;;;;5.30;4.80;;;16.10;99.90;;;;;;4918819;29;20446;-71
2022/04/27 14:31:48;;;;;;;6.17;5.57;;;16.20;99.90;;;;;;4918116;29;20749;-71
2022/04/27 14:34:14;;;;;;;5.77;5.27;;;16.20;99.90;;;;;;4917988;29;20237;-72
2022/04/27 14:36:39;;;;;;;5.47;4.97;;;16.10;99.90;;;;;;4918480;29;20584;-71
2022/04/27 14:39:05;;;;;;;9.63;4.43;;;16.10;99.90;;;;;;4918028;29;20218;-71
2022/04/27 14:41:31;;;;;;;5.40;4.90;;;16.20;99.90;;;;;;4918079;29;20198;-71
2022/04/27 14:43:57;;;;;;;6.27;5.67;;;16.30;99.90;;;;;;4917974;29;20214;-71